sensor_id;sensor_type;location;lat;lon;timestamp;P1;durP1;ratioP1;P2;durP2;ratioP2
69527;SDS011;57136;51.986;4.468;2022-12-18T00:00:41;68.57;;;23.20;;
69527;SDS011;57136;51.986;4.468;2022-12-18T00:03:07;70.25;;;23.77;;
69527;SDS011;57136;51.986;4.468;2022-12-18T00:05:32;77.00;;;27.33;;
69527;SDS011;57136;51.986;4.468;2022-12-18T00:07:57;65.82;;;22.73;;
69527;SDS011;57136;51.986;4.468;2022-12-18T00:10:23;63.35;;;21.80;;
69527;SDS011;57136;51.986;4.468;2022-12-18T00:12:48;83.68;;;26.15;;
69527;SDS011;57136;51.986;4.468;2022-12-18T00:15:13;69.00;;;23.75;;
69527;SDS011;57136;51.986;4.468;2022-12-18T00:17:39;66.65;;;22.25;;
69527;SDS011;57136;51.986;4.468;2022-12-18T00:20:04;68.57;;;23.88;;
69527;SDS011;57136;51.986;4.468;2022-12-18T00:22:30;55.92;;;21.52;;
69527;SDS011;57136;51.986;4.468;2022-12-18T00:24:55;64.10;;;23.08;;
69527;SDS011;57136;51.986;4.468;2022-12-18T00:27:20;76.97;;;22.45;;
69527;SDS011;57136;51.986;4.468;2022-12-18T00:29:45;68.80;;;22.13;;
69527;SDS011;57136;51.986;4.468;2022-12-18T00:32:12;66.30;;;22.58;;
69527;SDS011;57136;51.986;4.468;2022-12-18T00:34:37;63.40;;;22.02;;
69527;SDS011;57136;51.986;4.468;2022-12-18T00:37:03;73.80;;;22.42;;
69527;SDS011;57136;51.986;4.468;2022-12-18T00:39:28;73.32;;;23.60;;
69527;SDS011;57136;51.986;4.468;2022-12-18T00:41:53;72.13;;;24.35;;
69527;SDS011;57136;51.986;4.468;2022-12-18T00:44:37;83.35;;;25.05;;
69527;SDS011;57136;51.986;4.468;2022-12-18T00:47:02;56.88;;;21.27;;
69527;SDS011;57136;51.986;4.468;2022-12-18T00:49:28;76.13;;;22.17;;
69527;SDS011;57136;51.986;4.468;2022-12-18T00:51:53;75.03;;;23.40;;
69527;SDS011;57136;51.986;4.468;2022-12-18T00:54:18;78.70;;;26.27;;
69527;SDS011;57136;51.986;4.468;2022-12-18T00:56:44;74.28;;;23.48;;
69527;SDS011;57136;51.986;4.468;2022-12-18T00:59:09;78.55;;;25.05;;
69527;SDS011;57136;51.986;4.468;2022-12-18T01:01:35;83.43;;;25.05;;
69527;SDS011;57136;51.986;4.468;2022-12-18T01:04:01;82.18;;;25.25;;
69527;SDS011;57136;51.986;4.468;2022-12-18T01:06:27;73.88;;;23.35;;
69527;SDS011;57136;51.986;4.468;2022-12-18T01:08:52;81.72;;;23.35;;
69527;SDS011;57136;51.986;4.468;2022-12-18T01:11:18;72.50;;;23.70;;
69527;SDS011;57136;51.986;4.468;2022-12-18T01:13:44;75.40;;;22.92;;
69527;SDS011;57136;51.986;4.468;2022-12-18T01:16:11;74.15;;;22.70;;
69527;SDS011;57136;51.986;4.468;2022-12-18T01:18:37;65.03;;;23.17;;
69527;SDS011;57136;51.986;4.468;2022-12-18T01:21:06;76.13;;;23.67;;
69527;SDS011;57136;51.986;4.468;2022-12-18T01:23:32;62.08;;;20.38;;
69527;SDS011;57136;51.986;4.468;2022-12-18T01:25:58;65.28;;;22.40;;
69527;SDS011;57136;51.986;4.468;2022-12-18T01:28:23;73.32;;;21.67;;
69527;SDS011;57136;51.986;4.468;2022-12-18T01:30:48;62.20;;;20.95;;
69527;SDS011;57136;51.986;4.468;2022-12-18T01:33:13;53.65;;;19.05;;
69527;SDS011;57136;51.986;4.468;2022-12-18T01:35:42;76.25;;;21.55;;
69527;SDS011;57136;51.986;4.468;2022-12-18T01:38:07;70.93;;;23.60;;
69527;SDS011;57136;51.986;4.468;2022-12-18T01:40:33;73.22;;;23.08;;
69527;SDS011;57136;51.986;4.468;2022-12-18T01:42:58;71.80;;;22.40;;
69527;SDS011;57136;51.986;4.468;2022-12-18T01:45:25;80.65;;;23.95;;
69527;SDS011;57136;51.986;4.468;2022-12-18T01:47:57;71.00;;;22.52;;
69527;SDS011;57136;51.986;4.468;2022-12-18T01:53:10;71.57;;;23.38;;
69527;SDS011;57136;51.986;4.468;2022-12-18T01:55:39;76.53;;;23.88;;
69527;SDS011;57136;51.986;4.468;2022-12-18T01:58:08;70.50;;;22.88;;
69527;SDS011;57136;51.986;4.468;2022-12-18T02:00:34;59.28;;;20.92;;
69527;SDS011;57136;51.986;4.468;2022-12-18T02:03:00;66.47;;;23.23;;
69527;SDS011;57136;51.986;4.468;2022-12-18T02:08:13;60.70;;;20.20;;
69527;SDS011;57136;51.986;4.468;2022-12-18T02:10:48;71.38;;;19.67;;
69527;SDS011;57136;51.986;4.468;2022-12-18T02:13:41;70.78;;;23.15;;
69527;SDS011;57136;51.986;4.468;2022-12-18T02:18:56;63.80;;;21.52;;
69527;SDS011;57136;51.986;4.468;2022-12-18T02:26:36;73.95;;;23.63;;
69527;SDS011;57136;51.986;4.468;2022-12-18T02:29:08;80.97;;;23.60;;
69527;SDS011;57136;51.986;4.468;2022-12-18T02:31:42;70.88;;;21.70;;
69527;SDS011;57136;51.986;4.468;2022-12-18T02:34:12;73.55;;;24.27;;
69527;SDS011;57136;51.986;4.468;2022-12-18T02:36:39;83.35;;;24.30;;
69527;SDS011;57136;51.986;4.468;2022-12-18T02:39:09;66.95;;;21.30;;
69527;SDS011;57136;51.986;4.468;2022-12-18T02:41:36;67.43;;;22.85;;
69527;SDS011;57136;51.986;4.468;2022-12-18T02:44:07;70.70;;;24.40;;
69527;SDS011;57136;51.986;4.468;2022-12-18T02:46:35;77.50;;;22.83;;
69527;SDS011;57136;51.986;4.468;2022-12-18T02:51:52;67.22;;;22.58;;
69527;SDS011;57136;51.986;4.468;2022-12-18T02:54:33;70.22;;;22.27;;
69527;SDS011;57136;51.986;4.468;2022-12-18T02:57:16;71.68;;;21.90;;
69527;SDS011;57136;51.986;4.468;2022-12-18T02:59:55;54.25;;;19.35;;
69527;SDS011;57136;51.986;4.468;2022-12-18T03:02:28;61.17;;;21.63;;
69527;SDS011;57136;51.986;4.468;2022-12-18T03:05:05;77.10;;;22.30;;
69527;SDS011;57136;51.986;4.468;2022-12-18T03:07:39;60.90;;;20.23;;
69527;SDS011;57136;51.986;4.468;2022-12-18T03:10:11;56.25;;;22.15;;
69527;SDS011;57136;51.986;4.468;2022-12-18T03:12:49;64.47;;;21.42;;
69527;SDS011;57136;51.986;4.468;2022-12-18T03:15:20;65.28;;;20.42;;
69527;SDS011;57136;51.986;4.468;2022-12-18T03:17:59;58.47;;;19.45;;
69527;SDS011;57136;51.986;4.468;2022-12-18T03:20:29;63.92;;;21.50;;
69527;SDS011;57136;51.986;4.468;2022-12-18T03:22:59;64.88;;;21.52;;
69527;SDS011;57136;51.986;4.468;2022-12-18T03:25:30;56.97;;;18.48;;
69527;SDS011;57136;51.986;4.468;2022-12-18T03:27:58;64.22;;;20.75;;
69527;SDS011;57136;51.986;4.468;2022-12-18T03:30:27;55.85;;;19.83;;
69527;SDS011;57136;51.986;4.468;2022-12-18T03:35:48;59.38;;;20.05;;
69527;SDS011;57136;51.986;4.468;2022-12-18T03:38:14;62.00;;;21.13;;
69527;SDS011;57136;51.986;4.468;2022-12-18T03:40:45;58.55;;;18.98;;
69527;SDS011;57136;51.986;4.468;2022-12-18T03:43:51;56.67;;;19.10;;
69527;SDS011;57136;51.986;4.468;2022-12-18T03:46:26;54.00;;;18.67;;
69527;SDS011;57136;51.986;4.468;2022-12-18T03:49:04;61.60;;;19.52;;
69527;SDS011;57136;51.986;4.468;2022-12-18T03:51:40;54.38;;;19.08;;
69527;SDS011;57136;51.986;4.468;2022-12-18T03:54:15;67.25;;;20.40;;
69527;SDS011;57136;51.986;4.468;2022-12-18T03:56:44;57.92;;;19.95;;
69527;SDS011;57136;51.986;4.468;2022-12-18T03:59:13;53.47;;;18.52;;
69527;SDS011;57136;51.986;4.468;2022-12-18T04:01:42;52.92;;;19.52;;
69527;SDS011;57136;51.986;4.468;2022-12-18T04:04:12;59.58;;;18.00;;
69527;SDS011;57136;51.986;4.468;2022-12-18T04:06:40;60.17;;;19.88;;
69527;SDS011;57136;51.986;4.468;2022-12-18T04:09:07;60.75;;;19.15;;
69527;SDS011;57136;51.986;4.468;2022-12-18T04:11:33;67.32;;;21.10;;
69527;SDS011;57136;51.986;4.468;2022-12-18T04:13:58;54.92;;;19.08;;
69527;SDS011;57136;51.986;4.468;2022-12-18T04:16:24;66.82;;;20.85;;
69527;SDS011;57136;51.986;4.468;2022-12-18T04:18:51;61.45;;;20.42;;
69527;SDS011;57136;51.986;4.468;2022-12-18T04:21:16;62.15;;;19.42;;
69527;SDS011;57136;51.986;4.468;2022-12-18T04:23:41;53.67;;;21.05;;
69527;SDS011;57136;51.986;4.468;2022-12-18T04:26:07;53.47;;;19.35;;
69527;SDS011;57136;51.986;4.468;2022-12-18T04:28:32;56.33;;;18.88;;
69527;SDS011;57136;51.986;4.468;2022-12-18T04:30:58;55.97;;;18.65;;
69527;SDS011;57136;51.986;4.468;2022-12-18T04:33:23;63.40;;;20.05;;
69527;SDS011;57136;51.986;4.468;2022-12-18T04:35:48;52.35;;;17.20;;
69527;SDS011;57136;51.986;4.468;2022-12-18T04:38:14;63.25;;;21.35;;
69527;SDS011;57136;51.986;4.468;2022-12-18T04:40:39;53.90;;;19.52;;
69527;SDS011;57136;51.986;4.468;2022-12-18T04:43:05;53.22;;;18.77;;
69527;SDS011;57136;51.986;4.468;2022-12-18T04:45:31;54.97;;;18.20;;
69527;SDS011;57136;51.986;4.468;2022-12-18T04:47:57;59.20;;;19.48;;
69527;SDS011;57136;51.986;4.468;2022-12-18T04:50:23;60.58;;;21.00;;
69527;SDS011;57136;51.986;4.468;2022-12-18T04:52:48;60.15;;;20.17;;
69527;SDS011;57136;51.986;4.468;2022-12-18T04:55:13;57.85;;;18.50;;
69527;SDS011;57136;51.986;4.468;2022-12-18T04:57:39;50.97;;;20.50;;
69527;SDS011;57136;51.986;4.468;2022-12-18T05:00:04;64.53;;;19.85;;
69527;SDS011;57136;51.986;4.468;2022-12-18T05:02:31;52.20;;;18.17;;
69527;SDS011;57136;51.986;4.468;2022-12-18T05:04:56;57.88;;;20.13;;
69527;SDS011;57136;51.986;4.468;2022-12-18T05:07:22;50.75;;;19.05;;
69527;SDS011;57136;51.986;4.468;2022-12-18T05:09:47;57.70;;;20.23;;
69527;SDS011;57136;51.986;4.468;2022-12-18T05:12:12;54.58;;;19.73;;
69527;SDS011;57136;51.986;4.468;2022-12-18T05:14:37;58.25;;;19.15;;
69527;SDS011;57136;51.986;4.468;2022-12-18T05:17:03;61.40;;;20.10;;
69527;SDS011;57136;51.986;4.468;2022-12-18T05:19:28;55.53;;;19.30;;
69527;SDS011;57136;51.986;4.468;2022-12-18T05:21:53;44.83;;;17.13;;
69527;SDS011;57136;51.986;4.468;2022-12-18T05:24:18;51.65;;;18.42;;
69527;SDS011;57136;51.986;4.468;2022-12-18T05:26:44;45.20;;;17.45;;
69527;SDS011;57136;51.986;4.468;2022-12-18T05:29:09;52.35;;;18.50;;
69527;SDS011;57136;51.986;4.468;2022-12-18T05:31:37;43.90;;;16.50;;
69527;SDS011;57136;51.986;4.468;2022-12-18T05:34:03;49.25;;;19.70;;
69527;SDS011;57136;51.986;4.468;2022-12-18T05:36:28;45.88;;;18.30;;
69527;SDS011;57136;51.986;4.468;2022-12-18T05:38:53;43.58;;;16.08;;
69527;SDS011;57136;51.986;4.468;2022-12-18T05:41:19;47.70;;;18.40;;
69527;SDS011;57136;51.986;4.468;2022-12-18T05:43:44;46.35;;;18.63;;
69527;SDS011;57136;51.986;4.468;2022-12-18T05:46:12;51.72;;;17.65;;
69527;SDS011;57136;51.986;4.468;2022-12-18T05:48:39;49.42;;;17.92;;
69527;SDS011;57136;51.986;4.468;2022-12-18T05:51:05;45.05;;;18.75;;
69527;SDS011;57136;51.986;4.468;2022-12-18T05:53:32;46.30;;;19.42;;
69527;SDS011;57136;51.986;4.468;2022-12-18T05:56:02;41.65;;;18.33;;
69527;SDS011;57136;51.986;4.468;2022-12-18T05:58:29;48.60;;;18.48;;
69527;SDS011;57136;51.986;4.468;2022-12-18T06:00:56;48.13;;;18.23;;
69527;SDS011;57136;51.986;4.468;2022-12-18T06:03:21;45.38;;;18.52;;
69527;SDS011;57136;51.986;4.468;2022-12-18T06:05:47;47.60;;;19.17;;
69527;SDS011;57136;51.986;4.468;2022-12-18T06:08:13;40.67;;;16.75;;
69527;SDS011;57136;51.986;4.468;2022-12-18T06:10:38;46.40;;;17.10;;
69527;SDS011;57136;51.986;4.468;2022-12-18T06:13:05;48.28;;;16.85;;
69527;SDS011;57136;51.986;4.468;2022-12-18T06:15:31;53.25;;;19.83;;
69527;SDS011;57136;51.986;4.468;2022-12-18T06:17:57;36.38;;;17.67;;
69527;SDS011;57136;51.986;4.468;2022-12-18T06:20:22;44.28;;;18.17;;
69527;SDS011;57136;51.986;4.468;2022-12-18T06:22:47;45.03;;;16.85;;
69527;SDS011;57136;51.986;4.468;2022-12-18T06:25:13;47.45;;;18.85;;
69527;SDS011;57136;51.986;4.468;2022-12-18T06:27:38;43.30;;;17.70;;
69527;SDS011;57136;51.986;4.468;2022-12-18T06:30:04;39.17;;;15.30;;
69527;SDS011;57136;51.986;4.468;2022-12-18T06:32:30;40.58;;;16.27;;
69527;SDS011;57136;51.986;4.468;2022-12-18T06:34:55;50.95;;;18.45;;
69527;SDS011;57136;51.986;4.468;2022-12-18T06:37:21;48.53;;;18.88;;
69527;SDS011;57136;51.986;4.468;2022-12-18T06:39:50;47.58;;;17.95;;
69527;SDS011;57136;51.986;4.468;2022-12-18T06:42:16;44.75;;;18.00;;
69527;SDS011;57136;51.986;4.468;2022-12-18T06:44:41;43.35;;;17.38;;
69527;SDS011;57136;51.986;4.468;2022-12-18T06:47:06;41.03;;;17.52;;
69527;SDS011;57136;51.986;4.468;2022-12-18T06:49:32;48.80;;;18.27;;
69527;SDS011;57136;51.986;4.468;2022-12-18T06:51:57;48.35;;;18.25;;
69527;SDS011;57136;51.986;4.468;2022-12-18T06:54:22;40.10;;;15.55;;
69527;SDS011;57136;51.986;4.468;2022-12-18T06:56:48;44.92;;;18.30;;
69527;SDS011;57136;51.986;4.468;2022-12-18T06:59:13;50.92;;;19.05;;
69527;SDS011;57136;51.986;4.468;2022-12-18T07:01:39;40.42;;;15.57;;
69527;SDS011;57136;51.986;4.468;2022-12-18T07:04:05;47.88;;;17.02;;
69527;SDS011;57136;51.986;4.468;2022-12-18T07:06:30;34.75;;;15.73;;
69527;SDS011;57136;51.986;4.468;2022-12-18T07:08:56;40.50;;;15.98;;
69527;SDS011;57136;51.986;4.468;2022-12-18T07:11:22;42.20;;;16.88;;
69527;SDS011;57136;51.986;4.468;2022-12-18T07:13:47;44.03;;;16.27;;
69527;SDS011;57136;51.986;4.468;2022-12-18T07:16:13;44.55;;;16.08;;
69527;SDS011;57136;51.986;4.468;2022-12-18T07:18:40;37.65;;;15.55;;
69527;SDS011;57136;51.986;4.468;2022-12-18T07:21:07;39.03;;;15.45;;
69527;SDS011;57136;51.986;4.468;2022-12-18T07:23:34;42.80;;;15.48;;
69527;SDS011;57136;51.986;4.468;2022-12-18T07:26:04;35.85;;;15.32;;
69527;SDS011;57136;51.986;4.468;2022-12-18T07:28:31;38.10;;;16.05;;
69527;SDS011;57136;51.986;4.468;2022-12-18T07:30:58;38.92;;;15.30;;
69527;SDS011;57136;51.986;4.468;2022-12-18T07:33:27;31.65;;;13.93;;
69527;SDS011;57136;51.986;4.468;2022-12-18T07:35:52;33.08;;;14.13;;
69527;SDS011;57136;51.986;4.468;2022-12-18T07:38:17;43.33;;;15.75;;
69527;SDS011;57136;51.986;4.468;2022-12-18T07:40:42;34.08;;;14.05;;
69527;SDS011;57136;51.986;4.468;2022-12-18T07:43:08;32.75;;;15.02;;
69527;SDS011;57136;51.986;4.468;2022-12-18T07:45:33;36.53;;;15.65;;
69527;SDS011;57136;51.986;4.468;2022-12-18T07:47:58;27.83;;;13.57;;
69527;SDS011;57136;51.986;4.468;2022-12-18T07:50:24;29.15;;;13.82;;
69527;SDS011;57136;51.986;4.468;2022-12-18T07:52:49;34.83;;;14.02;;
69527;SDS011;57136;51.986;4.468;2022-12-18T07:55:14;30.00;;;13.52;;
69527;SDS011;57136;51.986;4.468;2022-12-18T07:57:40;26.38;;;13.35;;
69527;SDS011;57136;51.986;4.468;2022-12-18T08:00:08;28.35;;;13.95;;
69527;SDS011;57136;51.986;4.468;2022-12-18T08:02:34;31.92;;;13.77;;
69527;SDS011;57136;51.986;4.468;2022-12-18T08:05:00;37.97;;;14.40;;
69527;SDS011;57136;51.986;4.468;2022-12-18T08:07:25;34.42;;;14.25;;
69527;SDS011;57136;51.986;4.468;2022-12-18T08:09:51;29.80;;;13.70;;
69527;SDS011;57136;51.986;4.468;2022-12-18T08:12:16;28.52;;;12.82;;
69527;SDS011;57136;51.986;4.468;2022-12-18T08:14:41;34.05;;;13.20;;
69527;SDS011;57136;51.986;4.468;2022-12-18T08:17:07;34.72;;;14.82;;
69527;SDS011;57136;51.986;4.468;2022-12-18T08:19:32;31.77;;;14.18;;
69527;SDS011;57136;51.986;4.468;2022-12-18T08:21:57;33.45;;;14.20;;
69527;SDS011;57136;51.986;4.468;2022-12-18T08:24:23;26.33;;;12.68;;
69527;SDS011;57136;51.986;4.468;2022-12-18T08:26:48;31.92;;;13.88;;
69527;SDS011;57136;51.986;4.468;2022-12-18T08:29:13;32.28;;;14.02;;
69527;SDS011;57136;51.986;4.468;2022-12-18T08:31:39;30.02;;;13.75;;
69527;SDS011;57136;51.986;4.468;2022-12-18T08:34:04;38.13;;;14.75;;
69527;SDS011;57136;51.986;4.468;2022-12-18T08:36:29;29.25;;;13.73;;
69527;SDS011;57136;51.986;4.468;2022-12-18T08:38:55;28.27;;;14.13;;
69527;SDS011;57136;51.986;4.468;2022-12-18T08:41:21;33.28;;;14.35;;
69527;SDS011;57136;51.986;4.468;2022-12-18T08:43:47;32.78;;;14.57;;
69527;SDS011;57136;51.986;4.468;2022-12-18T08:46:32;30.60;;;14.65;;
69527;SDS011;57136;51.986;4.468;2022-12-18T08:49:01;36.28;;;14.27;;
69527;SDS011;57136;51.986;4.468;2022-12-18T08:51:26;28.90;;;13.73;;
69527;SDS011;57136;51.986;4.468;2022-12-18T08:53:52;34.45;;;14.88;;
69527;SDS011;57136;51.986;4.468;2022-12-18T08:56:17;31.13;;;14.60;;
69527;SDS011;57136;51.986;4.468;2022-12-18T08:58:42;30.52;;;13.57;;
69527;SDS011;57136;51.986;4.468;2022-12-18T09:01:09;32.03;;;14.15;;
69527;SDS011;57136;51.986;4.468;2022-12-18T09:03:36;30.17;;;12.95;;
69527;SDS011;57136;51.986;4.468;2022-12-18T09:06:01;28.15;;;13.52;;
69527;SDS011;57136;51.986;4.468;2022-12-18T09:08:27;32.47;;;14.75;;
69527;SDS011;57136;51.986;4.468;2022-12-18T09:10:53;29.73;;;13.13;;
69527;SDS011;57136;51.986;4.468;2022-12-18T09:13:19;25.05;;;13.88;;
69527;SDS011;57136;51.986;4.468;2022-12-18T09:15:45;31.30;;;14.63;;
69527;SDS011;57136;51.986;4.468;2022-12-18T09:18:13;29.98;;;13.43;;
69527;SDS011;57136;51.986;4.468;2022-12-18T09:20:39;32.10;;;13.32;;
69527;SDS011;57136;51.986;4.468;2022-12-18T09:23:05;32.58;;;15.25;;
69527;SDS011;57136;51.986;4.468;2022-12-18T09:25:31;31.50;;;14.68;;
69527;SDS011;57136;51.986;4.468;2022-12-18T09:28:19;32.70;;;14.20;;
69527;SDS011;57136;51.986;4.468;2022-12-18T09:30:45;29.45;;;14.02;;
69527;SDS011;57136;51.986;4.468;2022-12-18T09:33:12;31.15;;;14.70;;
69527;SDS011;57136;51.986;4.468;2022-12-18T09:35:38;33.22;;;15.00;;
69527;SDS011;57136;51.986;4.468;2022-12-18T09:38:05;28.60;;;13.25;;
69527;SDS011;57136;51.986;4.468;2022-12-18T09:40:36;32.15;;;14.50;;
69527;SDS011;57136;51.986;4.468;2022-12-18T09:43:06;24.60;;;12.68;;
69527;SDS011;57136;51.986;4.468;2022-12-18T09:45:44;30.58;;;14.38;;
69527;SDS011;57136;51.986;4.468;2022-12-18T09:48:18;26.27;;;14.13;;
69527;SDS011;57136;51.986;4.468;2022-12-18T09:50:48;28.70;;;13.77;;
69527;SDS011;57136;51.986;4.468;2022-12-18T09:53:19;28.75;;;14.73;;
69527;SDS011;57136;51.986;4.468;2022-12-18T09:55:49;30.20;;;14.70;;
69527;SDS011;57136;51.986;4.468;2022-12-18T09:58:30;27.77;;;14.55;;
69527;SDS011;57136;51.986;4.468;2022-12-18T10:01:09;35.08;;;14.55;;
69527;SDS011;57136;51.986;4.468;2022-12-18T10:03:36;34.17;;;14.60;;
69527;SDS011;57136;51.986;4.468;2022-12-18T10:06:05;37.65;;;15.10;;
69527;SDS011;57136;51.986;4.468;2022-12-18T10:17:03;31.63;;;14.18;;
69527;SDS011;57136;51.986;4.468;2022-12-18T10:19:54;25.45;;;12.82;;
69527;SDS011;57136;51.986;4.468;2022-12-18T10:25:23;32.42;;;15.23;;
69527;SDS011;57136;51.986;4.468;2022-12-18T10:28:11;27.35;;;13.77;;
69527;SDS011;57136;51.986;4.468;2022-12-18T10:30:40;23.80;;;12.02;;
69527;SDS011;57136;51.986;4.468;2022-12-18T10:33:10;31.92;;;13.25;;
69527;SDS011;57136;51.986;4.468;2022-12-18T10:35:37;32.00;;;13.75;;
69527;SDS011;57136;51.986;4.468;2022-12-18T10:38:20;24.95;;;12.52;;
69527;SDS011;57136;51.986;4.468;2022-12-18T10:43:31;28.65;;;14.38;;
69527;SDS011;57136;51.986;4.468;2022-12-18T10:48:33;26.88;;;14.25;;
69527;SDS011;57136;51.986;4.468;2022-12-18T10:51:01;33.08;;;13.93;;
69527;SDS011;57136;51.986;4.468;2022-12-18T10:53:29;26.52;;;13.38;;
69527;SDS011;57136;51.986;4.468;2022-12-18T10:55:58;28.02;;;13.23;;
69527;SDS011;57136;51.986;4.468;2022-12-18T10:58:32;30.10;;;14.50;;
69527;SDS011;57136;51.986;4.468;2022-12-18T11:03:41;27.65;;;13.13;;
69527;SDS011;57136;51.986;4.468;2022-12-18T11:06:10;29.10;;;12.93;;
69527;SDS011;57136;51.986;4.468;2022-12-18T11:08:44;24.65;;;11.60;;
69527;SDS011;57136;51.986;4.468;2022-12-18T11:11:22;29.88;;;13.35;;
69527;SDS011;57136;51.986;4.468;2022-12-18T11:13:57;24.33;;;12.57;;
69527;SDS011;57136;51.986;4.468;2022-12-18T11:16:26;29.65;;;14.40;;
69527;SDS011;57136;51.986;4.468;2022-12-18T11:18:53;27.60;;;12.85;;
69527;SDS011;57136;51.986;4.468;2022-12-18T11:21:18;26.27;;;13.30;;
69527;SDS011;57136;51.986;4.468;2022-12-18T11:23:48;24.15;;;11.68;;
69527;SDS011;57136;51.986;4.468;2022-12-18T11:26:15;25.60;;;12.02;;
69527;SDS011;57136;51.986;4.468;2022-12-18T11:31:25;22.98;;;11.73;;
69527;SDS011;57136;51.986;4.468;2022-12-18T11:36:20;23.65;;;11.05;;
69527;SDS011;57136;51.986;4.468;2022-12-18T11:38:47;24.00;;;11.77;;
69527;SDS011;57136;51.986;4.468;2022-12-18T11:44:24;22.85;;;11.82;;
69527;SDS011;57136;51.986;4.468;2022-12-18T11:46:55;24.95;;;11.55;;
69527;SDS011;57136;51.986;4.468;2022-12-18T11:49:27;24.65;;;10.52;;
69527;SDS011;57136;51.986;4.468;2022-12-18T11:54:50;26.35;;;11.98;;
69527;SDS011;57136;51.986;4.468;2022-12-18T12:00:02;24.85;;;11.98;;
69527;SDS011;57136;51.986;4.468;2022-12-18T12:16:43;22.52;;;11.68;;
69527;SDS011;57136;51.986;4.468;2022-12-18T12:19:15;24.23;;;11.77;;
69527;SDS011;57136;51.986;4.468;2022-12-18T12:24:27;25.08;;;12.32;;
69527;SDS011;57136;51.986;4.468;2022-12-18T12:29:47;22.35;;;11.43;;
69527;SDS011;57136;51.986;4.468;2022-12-18T12:40:23;22.65;;;11.25;;
69527;SDS011;57136;51.986;4.468;2022-12-18T12:42:58;23.95;;;11.65;;
69527;SDS011;57136;51.986;4.468;2022-12-18T12:51:30;22.30;;;11.35;;
69527;SDS011;57136;51.986;4.468;2022-12-18T12:54:05;23.83;;;12.00;;
69527;SDS011;57136;51.986;4.468;2022-12-18T12:56:44;22.65;;;11.32;;
69527;SDS011;57136;51.986;4.468;2022-12-18T13:02:03;25.42;;;12.48;;
69527;SDS011;57136;51.986;4.468;2022-12-18T13:07:15;23.23;;;11.32;;
69527;SDS011;57136;51.986;4.468;2022-12-18T13:13:18;23.23;;;11.25;;
69527;SDS011;57136;51.986;4.468;2022-12-18T13:15:44;27.15;;;12.70;;
69527;SDS011;57136;51.986;4.468;2022-12-18T13:20:49;25.58;;;12.88;;
69527;SDS011;57136;51.986;4.468;2022-12-18T13:25:57;28.00;;;11.68;;
69527;SDS011;57136;51.986;4.468;2022-12-18T13:31:09;20.40;;;10.93;;
69527;SDS011;57136;51.986;4.468;2022-12-18T13:36:15;22.65;;;11.38;;
69527;SDS011;57136;51.986;4.468;2022-12-18T13:38:47;26.35;;;13.10;;
69527;SDS011;57136;51.986;4.468;2022-12-18T13:43:45;22.92;;;12.02;;
69527;SDS011;57136;51.986;4.468;2022-12-18T13:49:00;26.95;;;13.40;;
69527;SDS011;57136;51.986;4.468;2022-12-18T13:51:27;26.83;;;12.93;;
69527;SDS011;57136;51.986;4.468;2022-12-18T13:54:00;27.48;;;12.98;;
69527;SDS011;57136;51.986;4.468;2022-12-18T13:56:47;22.38;;;12.20;;
69527;SDS011;57136;51.986;4.468;2022-12-18T14:01:58;25.83;;;12.43;;
69527;SDS011;57136;51.986;4.468;2022-12-18T14:04:29;22.83;;;11.57;;
69527;SDS011;57136;51.986;4.468;2022-12-18T14:07:13;31.40;;;12.80;;
69527;SDS011;57136;51.986;4.468;2022-12-18T14:10:00;27.88;;;13.30;;
69527;SDS011;57136;51.986;4.468;2022-12-18T14:12:30;26.58;;;12.40;;
69527;SDS011;57136;51.986;4.468;2022-12-18T14:17:54;25.33;;;12.07;;
69527;SDS011;57136;51.986;4.468;2022-12-18T14:20:22;23.67;;;11.80;;
69527;SDS011;57136;51.986;4.468;2022-12-18T14:22:49;27.63;;;13.30;;
69527;SDS011;57136;51.986;4.468;2022-12-18T14:25:17;26.52;;;14.18;;
69527;SDS011;57136;51.986;4.468;2022-12-18T14:33:02;27.70;;;12.73;;
69527;SDS011;57136;51.986;4.468;2022-12-18T14:35:29;24.58;;;12.20;;
69527;SDS011;57136;51.986;4.468;2022-12-18T14:38:08;28.13;;;12.55;;
69527;SDS011;57136;51.986;4.468;2022-12-18T14:40:43;28.55;;;12.50;;
69527;SDS011;57136;51.986;4.468;2022-12-18T14:43:10;25.85;;;12.30;;
69527;SDS011;57136;51.986;4.468;2022-12-18T14:48:05;23.77;;;11.77;;
69527;SDS011;57136;51.986;4.468;2022-12-18T14:50:32;24.00;;;13.07;;
69527;SDS011;57136;51.986;4.468;2022-12-18T14:52:57;28.50;;;12.73;;
69527;SDS011;57136;51.986;4.468;2022-12-18T14:55:23;22.10;;;11.85;;
69527;SDS011;57136;51.986;4.468;2022-12-18T14:57:49;21.02;;;12.07;;
69527;SDS011;57136;51.986;4.468;2022-12-18T15:00:18;27.52;;;13.35;;
69527;SDS011;57136;51.986;4.468;2022-12-18T15:02:46;25.20;;;12.57;;
69527;SDS011;57136;51.986;4.468;2022-12-18T15:07:53;28.27;;;13.57;;
69527;SDS011;57136;51.986;4.468;2022-12-18T15:10:30;24.95;;;12.68;;
69527;SDS011;57136;51.986;4.468;2022-12-18T15:17:58;25.73;;;13.40;;
69527;SDS011;57136;51.986;4.468;2022-12-18T15:20:33;25.77;;;11.98;;
69527;SDS011;57136;51.986;4.468;2022-12-18T15:23:14;24.38;;;12.57;;
69527;SDS011;57136;51.986;4.468;2022-12-18T15:25:43;22.38;;;12.18;;
69527;SDS011;57136;51.986;4.468;2022-12-18T15:28:17;25.48;;;13.30;;
69527;SDS011;57136;51.986;4.468;2022-12-18T15:31:03;29.95;;;12.68;;
69527;SDS011;57136;51.986;4.468;2022-12-18T15:36:17;28.90;;;14.25;;
69527;SDS011;57136;51.986;4.468;2022-12-18T15:38:49;24.35;;;12.23;;
69527;SDS011;57136;51.986;4.468;2022-12-18T15:41:19;23.45;;;12.45;;
69527;SDS011;57136;51.986;4.468;2022-12-18T15:43:46;25.50;;;12.50;;
69527;SDS011;57136;51.986;4.468;2022-12-18T15:46:14;22.88;;;12.48;;
69527;SDS011;57136;51.986;4.468;2022-12-18T15:48:42;23.35;;;11.82;;
69527;SDS011;57136;51.986;4.468;2022-12-18T15:51:12;29.60;;;12.75;;
69527;SDS011;57136;51.986;4.468;2022-12-18T15:53:41;27.85;;;12.27;;
69527;SDS011;57136;51.986;4.468;2022-12-18T15:56:14;22.70;;;11.98;;
69527;SDS011;57136;51.986;4.468;2022-12-18T15:58:59;27.40;;;12.65;;
69527;SDS011;57136;51.986;4.468;2022-12-18T16:01:26;25.38;;;12.82;;
69527;SDS011;57136;51.986;4.468;2022-12-18T16:03:53;23.88;;;12.65;;
69527;SDS011;57136;51.986;4.468;2022-12-18T16:06:19;21.55;;;12.10;;
69527;SDS011;57136;51.986;4.468;2022-12-18T16:08:45;20.90;;;11.65;;
69527;SDS011;57136;51.986;4.468;2022-12-18T16:11:24;25.55;;;12.45;;
69527;SDS011;57136;51.986;4.468;2022-12-18T16:14:20;19.63;;;10.93;;
69527;SDS011;57136;51.986;4.468;2022-12-18T16:16:53;23.80;;;11.13;;
69527;SDS011;57136;51.986;4.468;2022-12-18T16:19:23;19.38;;;11.02;;
69527;SDS011;57136;51.986;4.468;2022-12-18T16:21:50;29.48;;;12.27;;
69527;SDS011;57136;51.986;4.468;2022-12-18T16:24:24;30.23;;;14.70;;
69527;SDS011;57136;51.986;4.468;2022-12-18T16:26:53;25.45;;;12.63;;
69527;SDS011;57136;51.986;4.468;2022-12-18T16:29:19;26.27;;;12.50;;
69527;SDS011;57136;51.986;4.468;2022-12-18T16:31:49;27.63;;;13.32;;
69527;SDS011;57136;51.986;4.468;2022-12-18T16:36:47;28.58;;;14.63;;
69527;SDS011;57136;51.986;4.468;2022-12-18T16:39:13;23.77;;;12.35;;
69527;SDS011;57136;51.986;4.468;2022-12-18T16:41:39;24.63;;;12.77;;
69527;SDS011;57136;51.986;4.468;2022-12-18T16:44:04;27.05;;;12.98;;
69527;SDS011;57136;51.986;4.468;2022-12-18T16:46:29;24.80;;;12.00;;